Time;durP1;ratioP1;P1;durP2;ratioP2;P2;SDS_P1;SDS_P2;PMS_P1;PMS_P2;Temp;Humidity;BMP_temperature;BMP_pressure;BME280_temperature;BME280_humidity;BME280_pressure;Samples;Min_cycle;Max_cycle;Signal;HPM_P1;HPM_P2
2022/12/14 00:00:53;;;;;;;38.85;15.48;;;;;;;-1.10;72.49;91391.31;2070149;69;20608;-76
2022/12/14 00:03:19;;;;;;;36.72;16.02;;;;;;;-0.97;71.77;91395.78;2071816;69;20140;-76
2022/12/14 00:05:45;;;;;;;35.15;14.88;;;;;;;-1.19;72.58;91394.72;2071519;69;20159;-77
2022/12/14 00:08:13;;;;;;;31.45;13.98;;;;;;;-1.15;73.12;91384.72;2070975;69;20274;-77
2022/12/14 00:10:40;;;;;;;25.42;13.23;;;;;;;-1.20;73.74;91380.19;2071706;69;20133;-77
2022/12/14 00:13:07;;;;;;;25.92;13.15;;;;;;;-1.14;73.50;91380.69;2071455;69;20148;-79
2022/12/14 00:15:35;;;;;;;29.80;13.23;;;;;;;-1.02;72.52;91386.44;2071450;69;20147;-77
2022/12/14 00:18:03;;;;;;;28.60;13.32;;;;;;;-0.96;72.18;91386.22;2071515;69;20172;-75
2022/12/14 00:20:31;;;;;;;20.58;10.60;;;;;;;-0.96;72.30;91386.97;2071064;69;20135;-77
2022/12/14 00:22:57;;;;;;;16.73;8.05;;;;;;;-1.04;71.10;91383.53;2071137;69;20286;-79
2022/12/14 00:25:23;;;;;;;14.25;6.35;;;;;;;-0.92;69.46;91384.50;2070742;69;20143;-78
2022/12/14 00:27:51;;;;;;;13.32;6.25;;;;;;;-0.91;69.00;91369.41;2068124;69;20213;-78
2022/12/14 00:30:19;;;;;;;11.13;5.78;;;;;;;-0.82;68.80;91370.78;2071516;69;20167;-79
2022/12/14 00:32:46;;;;;;;9.82;5.18;;;;;;;-0.79;68.39;91364.84;2071602;69;20201;-76
2022/12/14 00:35:15;;;;;;;8.60;4.75;;;;;;;-0.86;69.04;91378.75;2071908;69;20163;-78
2022/12/14 00:37:41;;;;;;;10.32;4.63;;;;;;;-0.82;69.05;91370.78;2071144;69;20209;-77
2022/12/14 00:40:09;;;;;;;10.02;4.47;;;;;;;-0.87;67.53;91368.97;2071008;69;20535;-78
2022/12/14 00:42:38;;;;;;;9.15;5.03;;;;;;;-0.69;67.77;91367.66;2071587;69;20148;-77
2022/12/14 00:45:09;;;;;;;8.00;3.65;;;;;;;-0.64;67.95;91365.97;2071700;69;20168;-78
2022/12/14 00:47:36;;;;;;;7.90;4.20;;;;;;;-0.97;68.39;91370.94;2071608;69;20152;-79
2022/12/14 00:50:04;;;;;;;12.50;5.25;;;;;;;-0.80;68.41;91366.13;2071581;69;20191;-77
2022/12/14 00:52:30;;;;;;;9.98;5.05;;;;;;;-0.69;68.19;91364.91;2070757;69;20543;-79
2022/12/14 00:54:57;;;;;;;8.65;5.05;;;;;;;-0.74;68.92;91357.59;2071456;69;20209;-77
2022/12/14 00:57:23;;;;;;;11.35;4.10;;;;;;;-0.74;68.45;91349.31;2071547;69;20160;-77
2022/12/14 00:59:49;;;;;;;8.88;3.70;;;;;;;-0.64;68.23;91354.91;2070958;69;20160;-78
2022/12/14 01:02:16;;;;;;;10.95;3.90;;;;;;;-0.89;68.57;91358.50;2070447;69;20136;-77
2022/12/14 01:04:42;;;;;;;9.77;4.60;;;;;;;-0.70;67.25;91371.00;2071181;69;20279;-77
2022/12/14 01:07:08;;;;;;;14.73;4.07;;;;;;;-0.75;68.56;91366.47;2071392;69;20184;-77
2022/12/14 01:09:35;;;;;;;8.23;4.03;;;;;;;-0.59;67.81;91378.81;2071117;69;20244;-76
2022/12/14 01:12:00;;;;;;;7.63;4.10;;;;;;;-0.53;67.69;91377.25;2071096;69;20144;-77
2022/12/14 01:14:26;;;;;;;6.68;3.17;;;;;;;-0.57;68.30;91379.69;2071251;69;20136;-77
2022/12/14 01:16:51;;;;;;;6.25;3.45;;;;;;;-0.61;68.48;91384.91;2071308;69;20507;-76
2022/12/14 01:19:18;;;;;;;7.82;4.13;;;;;;;-0.70;67.90;91377.25;2071331;69;20164;-77
2022/12/14 01:21:43;;;;;;;7.85;3.88;;;;;;;-0.53;67.69;91376.53;2071344;69;20594;-76
2022/12/14 01:24:09;;;;;;;10.90;4.03;;;;;;;-0.48;67.53;91380.34;2071181;69;20148;-77
2022/12/14 01:26:38;;;;;;;6.90;4.47;;;;;;;-0.64;67.16;91379.78;2071434;69;20171;-79
2022/12/14 01:29:05;;;;;;;8.57;4.03;;;;;;;-0.55;67.20;91379.88;2073591;69;20183;-79
2022/12/14 01:31:33;;;;;;;8.65;3.50;;;;;;;-0.51;67.27;91373.91;2074631;69;20219;-78
2022/12/14 01:33:59;;;;;;;7.82;3.70;;;;;;;-0.46;67.30;91372.19;2074437;69;20151;-77
2022/12/14 01:36:28;;;;;;;6.57;3.08;;;;;;;-0.52;67.20;91373.19;2074650;69;20155;-77
2022/12/14 01:38:59;;;;;;;6.43;3.50;;;;;;;-0.60;67.89;91372.53;2074531;69;20338;-78
2022/12/14 01:41:26;;;;;;;6.45;3.40;;;;;;;-0.48;67.65;91366.50;2070500;69;20152;-75
2022/12/14 01:43:54;;;;;;;8.23;4.00;;;;;;;-0.44;67.28;91366.84;2069929;69;20253;-77
2022/12/14 01:46:39;;;;;;;7.70;3.40;;;;;;;-0.37;67.13;91361.19;2070829;69;20140;-77
2022/12/14 01:49:24;;;;;;;6.68;3.25;;;;;;;-0.47;67.80;91365.22;2071238;69;20128;-77
2022/12/14 01:52:11;;;;;;;5.70;3.33;;;;;;;-0.37;67.77;91363.22;2068116;69;20495;-80
2022/12/14 01:54:41;;;;;;;8.85;3.30;;;;;;;-0.42;67.59;91364.94;2071116;69;20590;-78
2022/12/14 01:57:11;;;;;;;11.68;3.30;;;;;;;-0.45;67.58;91363.34;2068204;69;20155;-75
2022/12/14 01:59:41;;;;;;;3.75;2.50;;;;;;;-0.38;67.21;91362.50;2071576;69;20228;-77
2022/12/14 02:02:11;;;;;;;6.28;3.80;;;;;;;-0.45;67.39;91352.28;2071315;69;20135;-77
2022/12/14 02:04:42;;;;;;;7.88;3.38;;;;;;;-0.38;67.44;91362.50;2067835;69;20155;-78
2022/12/14 02:07:11;;;;;;;7.45;3.80;;;;;;;-0.34;67.03;91360.06;2068034;69;20192;-77
2022/12/14 02:09:41;;;;;;;8.70;3.63;;;;;;;-0.39;66.58;91363.81;2071269;69;20231;-78
2022/12/14 02:12:14;;;;;;;11.30;4.35;;;;;;;-0.27;66.41;91355.75;2071620;69;20147;-76
2022/12/14 02:14:40;;;;;;;8.35;4.35;;;;;;;-0.49;68.08;91362.28;2071169;69;20251;-76
2022/12/14 02:17:09;;;;;;;9.63;4.28;;;;;;;-0.51;68.81;91355.28;2068057;69;20172;-77
2022/12/14 02:19:36;;;;;;;8.32;4.10;;;;;;;-0.41;68.06;91354.63;2071473;69;20148;-80
2022/12/14 02:22:47;;;;;;;10.00;4.65;;;;;;;-0.54;69.95;91359.22;2071432;69;20211;-76
2022/12/14 02:25:44;;;;;;;9.85;4.20;;;;;;;-0.38;69.06;91351.44;2070783;69;20221;-77
2022/12/14 02:28:25;;;;;;;9.40;4.07;;;;;;;-0.45;69.42;91355.06;2071057;69;20479;-78
2022/12/14 02:31:05;;;;;;;8.73;4.85;;;;;;;-0.52;69.65;91358.63;2070722;69;20285;-77
2022/12/14 02:33:50;;;;;;;10.60;4.63;;;;;;;-0.41;69.74;91365.69;2068011;69;20136;-77
2022/12/14 02:36:32;;;;;;;10.45;5.25;;;;;;;-0.40;69.04;91362.34;2070883;69;20172;-77
2022/12/14 02:39:41;;;;;;;11.02;5.60;;;;;;;-0.38;69.39;91368.03;2071150;69;20151;-76
2022/12/14 02:42:09;;;;;;;11.77;5.10;;;;;;;-0.33;69.28;91367.03;2065537;69;20151;-76
2022/12/14 02:44:54;;;;;;;10.57;5.32;;;;;;;-0.44;70.17;91359.28;2071408;69;20144;-76
2022/12/14 02:47:30;;;;;;;10.05;5.00;;;;;;;-0.35;69.69;91361.38;2071246;69;20171;-77
2022/12/14 02:50:20;;;;;;;9.95;5.38;;;;;;;-0.34;69.34;91351.03;2071026;69;20140;-75
2022/12/14 02:52:59;;;;;;;10.30;4.38;;;;;;;-0.38;70.61;91356.25;2071367;69;20251;-75
2022/12/14 02:55:41;;;;;;;7.78;4.25;;;;;;;-0.43;69.21;91354.47;2071049;69;20180;-75
2022/12/14 02:58:12;;;;;;;10.02;4.50;;;;;;;-0.26;68.37;91369.00;2071258;69;20152;-76
2022/12/14 03:00:39;;;;;;;8.25;4.28;;;;;;;-0.36;67.70;91362.69;2071392;69;20209;-76
2022/12/14 03:03:06;;;;;;;7.78;3.80;;;;;;;-0.22;67.26;91363.03;2071373;69;20179;-76
2022/12/14 03:05:32;;;;;;;7.75;4.28;;;;;;;-0.54;68.75;91331.56;2068058;69;20176;-76
2022/12/14 03:08:05;;;;;;;10.95;4.20;;;;;;;-0.33;67.52;91350.44;2070745;69;20157;-76
2022/12/14 03:10:49;;;;;;;9.25;4.00;;;;;;;-0.29;66.94;91339.72;2070293;69;20144;-77
2022/12/14 03:13:23;;;;;;;5.97;3.53;;;;;;;-0.31;66.04;91334.03;2071124;69;20183;-76
2022/12/14 03:16:08;;;;;;;6.53;3.25;;;;;;;-0.29;66.90;91334.19;2070980;69;20124;-78
2022/12/14 03:18:42;;;;;;;6.65;2.90;;;;;;;-0.22;66.90;91343.69;2067839;69;20143;-77
2022/12/14 03:21:14;;;;;;;6.10;3.20;;;;;;;-0.16;67.10;91344.16;2071303;69;20151;-75
2022/12/14 03:23:45;;;;;;;7.43;3.60;;;;;;;-0.22;66.59;91323.59;2071920;69;20176;-75
2022/12/14 03:26:21;;;;;;;7.05;3.80;;;;;;;-0.17;66.57;91320.56;2069079;69;20581;-76
2022/12/14 03:28:53;;;;;;;5.90;3.17;;;;;;;-0.08;67.03;91332.97;2069231;69;20251;-76
2022/12/14 03:31:30;;;;;;;8.40;2.92;;;;;;;-0.15;67.61;91331.03;2068576;69;20156;-76
2022/12/14 03:34:00;;;;;;;4.30;2.75;;;;;;;-0.09;66.69;91337.03;2068473;69;20203;-78
2022/12/14 03:36:36;;;;;;;7.47;3.20;;;;;;;-0.21;65.47;91334.09;2067625;69;20152;-77
2022/12/14 03:39:06;;;;;;;9.15;3.08;;;;;;;-0.05;65.91;91323.50;2068421;69;20172;-77
2022/12/14 03:41:59;;;;;;;6.03;3.25;;;;;;;-0.03;65.20;91316.13;2068278;69;20160;-76
2022/12/14 03:44:43;;;;;;;7.38;3.08;;;;;;;0.02;65.83;91308.13;2068158;69;20145;-76
2022/12/14 03:47:29;;;;;;;6.78;2.95;;;;;;;0.12;65.15;91309.63;2068189;69;20176;-76
2022/12/14 03:50:15;;;;;;;5.50;3.00;;;;;;;0.16;65.77;91309.19;2068104;69;20152;-77
2022/12/14 03:53:06;;;;;;;7.53;2.83;;;;;;;0.07;66.06;91298.81;2068013;69;20606;-76
2022/12/14 03:55:44;;;;;;;6.60;2.58;;;;;;;0.01;66.62;91295.59;2067914;69;20173;-76
2022/12/14 03:58:28;;;;;;;4.20;2.53;;;;;;;0.05;66.75;91298.69;2068399;69;20143;-76
2022/12/14 04:01:02;;;;;;;6.90;3.03;;;;;;;0.06;66.62;91295.31;2067918;69;20224;-76
2022/12/14 04:03:47;;;;;;;5.45;2.47;;;;;;;0.08;66.75;91300.28;2068006;69;20137;-77
2022/12/14 04:06:37;;;;;;;4.65;2.95;;;;;;;0.03;66.73;91299.25;2067891;69;20121;-78
2022/12/14 04:09:09;;;;;;;4.13;2.70;;;;;;;0.03;67.16;91301.28;2067756;69;20171;-76
2022/12/14 04:20:11;;;;;;;6.60;3.10;;;;;;;-0.05;65.83;91296.56;2068394;69;20191;-76
2022/12/14 04:22:42;;;;;;;5.65;3.08;;;;;;;-0.04;65.06;91303.59;2068128;69;20153;-78
2022/12/14 04:31:06;;;;;;;5.57;3.15;;;;;;;0.05;65.37;91285.56;2071657;69;20244;-76
2022/12/14 04:33:47;;;;;;;6.20;3.20;;;;;;;0.13;65.76;91299.28;2071484;69;20184;-76
2022/12/14 04:36:18;;;;;;;7.28;3.10;;;;;;;-0.03;65.88;91284.94;2071268;69;20172;-75
2022/12/14 04:38:46;;;;;;;5.72;2.83;;;;;;;-0.08;65.32;91266.59;2071601;69;20246;-77
2022/12/14 04:41:16;;;;;;;5.22;2.70;;;;;;;0.20;65.23;91292.91;2071731;69;20207;-80
2022/12/14 04:43:45;;;;;;;13.73;6.63;;;;;;;0.14;65.54;91292.44;2071592;69;20155;-80
2022/12/14 04:46:14;;;;;;;10.95;4.18;;;;;;;-0.09;65.80;91292.78;2071517;69;20219;-78
2022/12/14 04:49:06;;;;;;;7.40;3.40;;;;;;;-0.15;64.88;91292.31;2071119;69;20167;-79
2022/12/14 04:51:47;;;;;;;8.00;3.40;;;;;;;0.06;64.48;91289.06;2071690;69;20172;-77
2022/12/14 04:54:30;;;;;;;5.75;2.63;;;;;;;0.09;65.14;91283.13;2070753;69;20172;-76
2022/12/14 04:57:15;;;;;;;5.43;2.60;;;;;;;0.19;65.69;91275.56;2068102;69;20144;-75
2022/12/14 04:59:40;;;;;;;4.30;2.47;;;;;;;0.14;65.93;91279.34;2069329;69;20144;-76
2022/12/14 05:02:21;;;;;;;9.82;3.60;;;;;;;0.04;64.01;91280.59;2071762;69;20144;-78
2022/12/14 05:05:06;;;;;;;5.47;2.50;;;;;;;0.15;65.24;91271.75;2070973;69;20578;-77
2022/12/14 05:07:55;;;;;;;4.93;2.80;;;;;;;-0.13;66.25;91267.59;2068363;69;20172;-77
2022/12/14 05:10:35;;;;;;;7.80;2.95;;;;;;;-0.14;65.16;91264.06;2071685;69;20200;-77
2022/12/14 05:13:09;;;;;;;7.55;2.40;;;;;;;0.06;65.78;91269.69;2071682;69;20140;-78
2022/12/14 05:15:45;;;;;;;4.65;2.60;;;;;;;0.01;65.52;91267.94;2071330;69;20168;-81
2022/12/14 05:18:11;;;;;;;6.47;2.40;;;;;;;-0.10;65.79;91263.66;2071298;69;20140;-79
2022/12/14 05:20:36;;;;;;;5.22;2.38;;;;;;;-0.05;65.59;91271.69;2070958;69;20176;-79
2022/12/14 05:23:02;;;;;;;4.18;2.63;;;;;;;0.00;65.69;91269.97;2071613;69;20124;-78
2022/12/14 05:25:28;;;;;;;5.13;2.58;;;;;;;-0.05;65.77;91274.44;2070940;69;20174;-79
2022/12/14 05:28:13;;;;;;;4.90;2.35;;;;;;;-0.09;65.83;91268.63;2072833;69;20198;-78
2022/12/14 05:30:39;;;;;;;4.13;2.10;;;;;;;-0.11;66.21;91276.75;2074245;69;20148;-79
2022/12/14 05:33:15;;;;;;;4.43;2.20;;;;;;;-0.10;66.42;91263.66;2074321;69;20159;-78
2022/12/14 05:35:40;;;;;;;5.22;2.75;;;;;;;-0.26;67.08;91257.63;2074317;69;20132;-80
2022/12/14 05:38:06;;;;;;;6.18;2.70;;;;;;;-0.26;66.82;91255.59;2071904;69;20598;-78
2022/12/14 05:40:31;;;;;;;3.03;2.03;;;;;;;-0.15;66.43;91253.59;2071777;69;20570;-80
2022/12/14 05:43:08;;;;;;;4.28;2.30;;;;;;;-0.30;66.60;91251.81;2071839;69;20148;-80
2022/12/14 05:45:34;;;;;;;3.40;2.00;;;;;;;-0.37;66.81;91241.56;2071754;69;20140;-81
2022/12/14 05:47:59;;;;;;;5.85;2.92;;;;;;;-0.36;67.74;91249.31;2071638;69;20202;-79
2022/12/14 05:50:25;;;;;;;3.30;1.90;;;;;;;-0.37;67.84;91244.34;2071738;69;20155;-78
2022/12/14 05:52:51;;;;;;;2.95;1.80;;;;;;;-0.31;68.11;91248.31;2071614;69;20140;-80
2022/12/14 05:55:17;;;;;;;3.88;2.30;;;;;;;-0.39;67.91;91244.19;2071741;69;20184;-77
2022/12/14 05:57:43;;;;;;;3.88;2.10;;;;;;;-0.29;67.88;91240.16;2071626;69;20184;-77
2022/12/14 06:00:09;;;;;;;4.82;2.40;;;;;;;-0.39;68.36;91231.09;2071587;69;20160;-76
2022/12/14 06:02:35;;;;;;;6.03;2.60;;;;;;;-0.32;67.65;91224.72;2068396;69;20137;-78
2022/12/14 06:05:00;;;;;;;6.35;2.58;;;;;;;-0.35;68.10;91228.63;2071572;69;20515;-79
2022/12/14 06:07:26;;;;;;;5.20;2.90;;;;;;;-0.43;66.10;91219.72;2071589;69;20164;-80
2022/12/14 06:09:51;;;;;;;7.22;3.70;;;;;;;-0.50;65.43;91239.94;2065272;69;20168;-80
2022/12/14 06:12:17;;;;;;;6.85;3.10;;;;;;;-0.15;65.52;91223.91;2071609;69;20136;-80
2022/12/14 06:14:43;;;;;;;7.47;2.90;;;;;;;-0.16;66.26;91238.31;2071679;69;20140;-80
2022/12/14 06:17:08;;;;;;;4.63;2.17;;;;;;;-0.02;66.37;91225.53;2071620;69;20144;-80
2022/12/14 06:19:34;;;;;;;10.95;3.42;;;;;;;-0.11;66.25;91215.19;2071583;69;20136;-78
2022/12/14 06:22:00;;;;;;;6.82;4.07;;;;;;;-0.11;66.06;91213.13;2071641;69;20463;-78
2022/12/14 06:24:25;;;;;;;5.90;3.60;;;;;;;-0.20;65.83;91219.38;2071233;69;20128;-78
2022/12/14 06:26:51;;;;;;;5.80;3.42;;;;;;;-0.07;66.28;91216.22;2071730;69;20202;-77
2022/12/14 06:29:18;;;;;;;5.75;2.78;;;;;;;-0.12;66.84;91219.97;2068037;69;20144;-78
2022/12/14 06:31:45;;;;;;;5.78;3.45;;;;;;;-0.23;66.04;91217.03;2071588;69;20293;-79
2022/12/14 06:34:12;;;;;;;8.35;3.60;;;;;;;-0.10;65.62;91224.94;2071677;69;20239;-78
2022/12/14 06:36:40;;;;;;;6.82;3.67;;;;;;;-0.12;64.98;91202.66;2071354;69;20133;-80
2022/12/14 06:39:10;;;;;;;4.57;2.83;;;;;;;-0.04;65.94;91214.34;2071306;69;20144;-78
2022/12/14 06:41:35;;;;;;;4.80;3.08;;;;;;;-0.05;65.67;91190.72;2071611;69;20152;-79
2022/12/14 06:44:07;;;;;;;5.75;3.03;;;;;;;-0.07;65.49;91201.66;2071584;69;20275;-79
2022/12/14 06:46:33;;;;;;;5.80;2.83;;;;;;;-0.01;66.39;91193.78;2071533;69;20195;-79
2022/12/14 06:48:59;;;;;;;5.70;2.72;;;;;;;-0.10;66.68;91178.63;2071409;69;20156;-79
2022/12/14 06:51:25;;;;;;;5.10;2.90;;;;;;;-0.15;65.47;91181.69;2071428;69;20179;-79
2022/12/14 06:53:52;;;;;;;6.32;2.35;;;;;;;-0.09;66.91;91195.97;2071272;69;20148;-79
2022/12/14 06:56:20;;;;;;;3.92;2.30;;;;;;;-0.26;68.19;91189.22;2071426;69;20538;-80
2022/12/14 06:58:46;;;;;;;5.47;3.53;;;;;;;-0.15;66.43;91199.00;2071859;69;20180;-79
2022/12/14 07:01:15;;;;;;;5.55;2.60;;;;;;;-0.05;66.70;91197.00;2072882;69;20210;-78
2022/12/14 07:03:42;;;;;;;3.38;1.73;;;;;;;-0.04;66.81;91206.03;2073179;69;20172;-78
2022/12/14 07:06:09;;;;;;;5.45;1.70;;;;;;;-0.09;67.11;91185.66;2071474;69;20176;-78
2022/12/14 07:08:36;;;;;;;2.70;1.65;;;;;;;-0.05;67.33;91193.50;2071539;69;20164;-77
2022/12/14 07:11:07;;;;;;;2.95;2.00;;;;;;;-0.11;67.49;91202.06;2071333;69;20144;-81
2022/12/14 07:13:33;;;;;;;6.80;3.92;;;;;;;-0.17;67.88;91203.66;2071921;69;20161;-79
2022/12/14 07:16:02;;;;;;;13.43;6.05;;;;;;;-0.05;66.57;91191.44;2071780;69;20156;-76
2022/12/14 07:18:28;;;;;;;8.63;5.05;;;;;;;-0.03;66.72;91188.13;2071841;69;20132;-76
2022/12/14 07:20:57;;;;;;;7.47;4.57;;;;;;;0.04;67.09;91181.72;2071888;69;20132;-78
2022/12/14 07:23:24;;;;;;;11.15;5.13;;;;;;;0.09;66.48;91189.03;2072024;69;20247;-78
2022/12/14 07:25:51;;;;;;;10.25;5.10;;;;;;;0.15;66.85;91191.50;2071853;69;20180;-79
2022/12/14 07:28:17;;;;;;;7.18;4.30;;;;;;;0.08;67.36;91184.06;2071860;69;20579;-78
2022/12/14 07:30:43;;;;;;;16.63;8.57;;;;;;;-0.06;67.89;91184.47;2071858;69;20460;-77
2022/12/14 07:33:09;;;;;;;17.30;9.82;;;;;;;0.09;66.98;91179.97;2072008;69;20559;-76
2022/12/14 07:35:34;;;;;;;12.60;7.75;;;;;;;0.21;66.40;91183.66;2071834;69;20152;-77
2022/12/14 07:38:00;;;;;;;13.98;6.80;;;;;;;0.16;66.80;91182.63;2068573;69;20243;-78
2022/12/14 07:40:26;;;;;;;11.60;6.72;;;;;;;0.15;66.93;91169.38;2071769;69;20228;-77
2022/12/14 07:42:51;;;;;;;12.60;6.63;;;;;;;0.15;66.64;91170.09;2072003;69;20646;-77
2022/12/14 07:45:17;;;;;;;16.23;8.75;;;;;;;0.18;66.61;91176.50;2071760;69;20571;-80
2022/12/14 07:47:43;;;;;;;21.50;10.50;;;;;;;0.22;66.71;91166.44;2071890;69;20163;-81
2022/12/14 07:50:09;;;;;;;19.70;10.77;;;;;;;0.28;66.93;91173.75;2071783;69;20606;-77
2022/12/14 07:52:35;;;;;;;20.85;10.20;;;;;;;0.24;66.98;91174.19;2071770;69;20150;-79
2022/12/14 07:55:00;;;;;;;25.42;14.93;;;;;;;0.23;67.65;91179.00;2071716;69;20148;-79
2022/12/14 07:57:26;;;;;;;19.35;11.57;;;;;;;0.29;67.34;91181.47;2071643;69;20621;-80
2022/12/14 07:59:52;;;;;;;21.17;11.82;;;;;;;0.42;67.32;91181.06;2071843;69;20160;-81
2022/12/14 08:02:18;;;;;;;21.67;13.40;;;;;;;0.45;66.86;91188.19;2071822;69;20156;-79
2022/12/14 08:04:43;;;;;;;23.55;14.48;;;;;;;0.44;67.29;91183.97;2071813;69;20238;-79
2022/12/14 08:07:09;;;;;;;16.33;9.75;;;;;;;0.44;67.34;91180.47;2071740;69;20160;-77
2022/12/14 08:09:36;;;;;;;17.10;10.32;;;;;;;0.34;67.32;91179.72;2068164;69;20152;-77
2022/12/14 08:12:02;;;;;;;17.80;10.45;;;;;;;0.20;67.84;91179.44;2071713;69;20599;-77
2022/12/14 08:14:28;;;;;;;16.42;9.77;;;;;;;0.48;67.62;91189.78;2071860;69;20156;-78
2022/12/14 08:16:53;;;;;;;24.67;11.02;;;;;;;0.53;67.04;91188.03;2071894;69;20132;-77
2022/12/14 08:19:19;;;;;;;16.98;10.30;;;;;;;0.69;66.85;91200.28;2068596;69;20137;-78
2022/12/14 08:21:45;;;;;;;27.15;14.60;;;;;;;0.61;67.08;91185.84;2072660;69;20137;-77
2022/12/14 08:24:12;;;;;;;31.00;17.02;;;;;;;0.65;67.14;91174.34;2074050;69;20164;-76
2022/12/14 08:26:37;;;;;;;27.05;14.68;;;;;;;0.72;66.82;91170.69;2074167;69;20179;-77
2022/12/14 08:29:04;;;;;;;20.27;12.80;;;;;;;0.63;66.70;91163.84;2072555;69;20206;-78
2022/12/14 08:31:30;;;;;;;21.67;11.55;;;;;;;0.76;67.01;91149.53;2071942;69;20186;-78
2022/12/14 08:33:58;;;;;;;14.63;9.25;;;;;;;0.78;67.62;91140.66;2072113;69;20228;-78
2022/12/14 08:36:29;;;;;;;25.45;14.00;;;;;;;0.47;67.70;91140.53;2068499;69;20141;-77
2022/12/14 08:38:57;;;;;;;16.27;8.30;;;;;;;0.20;67.94;91141.41;2071758;69;20246;-78
2022/12/14 08:41:24;;;;;;;19.50;8.50;;;;;;;0.78;67.13;91162.81;2071752;69;20176;-78
2022/12/14 08:43:58;;;;;;;14.85;7.88;;;;;;;0.92;66.77;91174.91;2071640;69;20148;-78
2022/12/14 08:46:26;;;;;;;10.85;6.40;;;;;;;1.00;66.33;91174.72;2071719;69;20202;-77
2022/12/14 08:48:53;;;;;;;12.00;6.50;;;;;;;1.00;64.75;91160.88;2071648;69;20152;-77
2022/12/14 08:51:20;;;;;;;10.15;5.45;;;;;;;1.04;63.82;91146.59;2071621;69;20208;-76
2022/12/14 08:53:48;;;;;;;9.93;5.45;;;;;;;1.16;64.01;91159.25;2071565;69;20144;-76
2022/12/14 08:56:17;;;;;;;9.25;5.30;;;;;;;1.38;62.82;91159.34;2071872;69;20155;-79
2022/12/14 08:58:43;;;;;;;12.35;5.28;;;;;;;1.39;62.77;91153.19;2072072;69;20237;-77
2022/12/14 09:01:20;;;;;;;10.68;5.18;;;;;;;1.68;61.98;91144.03;2071591;69;20140;-78
2022/12/14 09:03:48;;;;;;;7.85;4.40;;;;;;;1.58;61.36;91141.28;2071621;69;20135;-77
2022/12/14 09:06:22;;;;;;;10.23;4.75;;;;;;;1.25;61.11;91158.50;2071597;69;20144;-77
2022/12/14 09:08:49;;;;;;;13.48;7.25;;;;;;;1.23;64.17;91166.66;2071425;69;20652;-77
2022/12/14 09:11:16;;;;;;;14.85;7.05;;;;;;;1.68;62.97;91169.72;2071790;69;20148;-78
2022/12/14 09:13:44;;;;;;;11.45;6.65;;;;;;;1.72;62.89;91158.16;2071651;69;20199;-78
2022/12/14 09:16:16;;;;;;;14.00;6.57;;;;;;;1.93;62.32;91157.50;2071788;69;20228;-77
2022/12/14 09:18:50;;;;;;;12.30;6.82;;;;;;;2.03;62.37;91147.78;2071853;69;20511;-78
2022/12/14 09:21:16;;;;;;;13.43;6.80;;;;;;;2.31;63.24;91144.69;2071506;69;20140;-78
2022/12/14 09:23:43;;;;;;;14.68;7.03;;;;;;;2.34;61.53;91135.16;2068018;69;20603;-78
2022/12/14 09:26:20;;;;;;;22.92;11.63;;;;;;;2.36;61.88;91138.81;2071584;69;20179;-79
2022/12/14 09:28:48;;;;;;;14.80;7.93;;;;;;;2.37;61.22;91145.81;2071403;69;20164;-79
2022/12/14 09:31:19;;;;;;;21.35;12.35;;;;;;;2.66;61.43;91133.75;2068089;69;20199;-77
2022/12/14 09:33:45;;;;;;;14.95;8.60;;;;;;;2.91;61.84;91125.63;2071465;69;20168;-77
2022/12/14 09:36:13;;;;;;;16.85;8.50;;;;;;;2.87;59.95;91128.16;2071559;69;20171;-77
2022/12/14 09:38:39;;;;;;;15.00;9.48;;;;;;;3.01;59.50;91129.03;2071547;69;20179;-77
2022/12/14 09:41:18;;;;;;;23.30;11.18;;;;;;;2.82;60.50;91134.06;2071451;69;20631;-77
2022/12/14 09:43:54;;;;;;;20.38;11.18;;;;;;;3.33;59.44;91134.44;2068010;69;20144;-76
2022/12/14 09:46:45;;;;;;;17.48;9.95;;;;;;;3.57;59.15;91133.13;2071460;69;20151;-77
2022/12/14 09:49:25;;;;;;;30.98;15.35;;;;;;;3.87;58.22;91136.28;2071305;69;20164;-77
2022/12/14 09:51:52;;;;;;;27.48;16.02;;;;;;;3.78;57.09;91140.66;2071334;69;20613;-77
2022/12/14 09:54:23;;;;;;;18.50;11.25;;;;;;;3.72;58.54;91127.09;2071342;69;20152;-77
2022/12/14 09:56:49;;;;;;;18.40;9.85;;;;;;;4.08;58.25;91131.31;2071491;69;20183;-77
2022/12/14 09:59:19;;;;;;;19.80;9.95;;;;;;;3.59;58.59;91127.69;2068105;69;20187;-78
2022/12/14 10:02:03;;;;;;;20.67;11.85;;;;;;;3.56;58.63;91117.75;2068010;69;20151;-78
2022/12/14 10:05:05;;;;;;;25.63;13.43;;;;;;;4.89;57.68;91114.97;2071522;69;20494;-77
2022/12/14 10:08:12;;;;;;;24.60;14.27;;;;;;;5.33;56.33;91118.78;2068174;69;20144;-76
2022/12/14 10:10:40;;;;;;;17.77;10.20;;;;;;;5.70;54.82;91101.19;2071390;69;20183;-76
2022/12/14 10:13:23;;;;;;;17.77;9.27;;;;;;;5.97;53.91;91106.09;2071492;69;20196;-76
2022/12/14 10:16:04;;;;;;;;;;;;;;;6.37;51.91;91107.44;2071556;69;20177;-76
2022/12/14 10:18:37;;;;;;;15.82;8.20;;;;;;;6.52;51.02;91106.81;2071500;69;20133;-76
2022/12/14 10:21:13;;;;;;;9.43;5.80;;;;;;;6.96;50.53;91099.13;2067887;69;20243;-76
2022/12/14 10:23:47;;;;;;;12.63;7.22;;;;;;;6.81;50.24;91099.78;2071371;69;20129;-76
2022/12/14 10:26:18;;;;;;;18.63;7.63;;;;;;;7.14;49.63;91082.47;2071497;69;20221;-77
2022/12/14 10:28:51;;;;;;;14.82;7.88;;;;;;;6.72;48.38;91073.50;2071331;69;20160;-77
2022/12/14 10:31:37;;;;;;;20.52;11.43;;;;;;;7.93;48.08;91065.78;2071237;69;20132;-78
2022/12/14 10:34:31;;;;;;;23.75;12.95;;;;;;;8.06;47.71;91072.63;2071403;69;20558;-78
2022/12/14 10:37:33;;;;;;;19.73;11.18;;;;;;;8.86;46.92;91065.50;2070661;69;20144;-78
2022/12/14 10:40:08;;;;;;;19.75;10.93;;;;;;;9.03;45.18;91066.88;2062341;69;20533;-78
2022/12/14 10:42:55;;;;;;;21.35;10.93;;;;;;;7.44;47.37;91060.06;2071245;69;20259;-78
2022/12/14 10:45:50;;;;;;;24.30;12.18;;;;;;;8.84;46.18;91071.00;2071390;69;20150;-80
2022/12/14 10:48:39;;;;;;;21.20;13.13;;;;;;;8.36;45.01;91070.41;2070006;69;20136;-78
2022/12/14 10:51:39;;;;;;;19.98;11.68;;;;;;;7.31;46.24;91065.09;2071735;69;20557;-78
2022/12/14 10:54:19;;;;;;;15.30;7.60;;;;;;;7.38;46.61;91063.31;2071853;69;20218;-78
2022/12/14 10:56:47;;;;;;;17.67;7.15;;;;;;;7.78;45.07;91056.00;2071808;69;20172;-77
2022/12/14 10:59:25;;;;;;;9.90;5.45;;;;;;;7.37;46.16;91054.19;2071774;69;20164;-77
2022/12/14 11:02:19;;;;;;;11.63;6.07;;;;;;;7.96;46.00;91046.97;2071783;69;20248;-78
2022/12/14 11:04:57;;;;;;;11.82;7.20;;;;;;;7.75;47.74;91036.97;2071963;69;20254;-77
2022/12/14 11:07:42;;;;;;;11.60;7.50;;;;;;;7.30;47.33;91029.34;2071718;69;20164;-76
2022/12/14 11:10:20;;;;;;;14.07;8.27;;;;;;;7.82;46.39;91027.44;2071563;69;20236;-78
2022/12/14 11:13:00;;;;;;;17.10;8.68;;;;;;;7.79;46.67;91023.84;2071801;69;20245;-77
2022/12/14 11:15:39;;;;;;;16.55;8.15;;;;;;;7.84;46.70;91021.94;2071906;69;20154;-79
2022/12/14 11:18:11;;;;;;;14.73;6.93;;;;;;;7.68;46.28;91027.56;2071776;69;20160;-78
2022/12/14 11:20:49;;;;;;;15.43;8.25;;;;;;;7.85;46.27;91031.78;2071728;69;20148;-75
2022/12/14 11:23:25;;;;;;;19.23;9.55;;;;;;;7.63;46.17;91015.44;2071725;69;20469;-77
2022/12/14 11:25:55;;;;;;;24.45;9.65;;;;;;;7.39;47.65;91001.09;2071665;69;20509;-80
2022/12/14 11:28:32;;;;;;;16.67;9.18;;;;;;;7.31;48.13;90991.59;2071687;69;20152;-76
2022/12/14 11:31:22;;;;;;;19.38;9.95;;;;;;;7.47;48.44;90981.13;2071691;69;20558;-77
2022/12/14 11:33:54;;;;;;;19.30;10.18;;;;;;;7.71;47.53;90995.47;2071877;69;20128;-76
2022/12/14 11:36:28;;;;;;;22.63;11.75;;;;;;;7.29;46.86;90995.03;2071690;69;20246;-76
2022/12/14 11:39:08;;;;;;;23.10;9.32;;;;;;;6.17;48.99;90991.84;2071694;69;20132;-76
2022/12/14 11:41:37;;;;;;;29.23;11.88;;;;;;;6.57;49.00;91002.22;2071770;69;20139;-76
2022/12/14 11:44:14;;;;;;;25.63;9.30;;;;;;;6.86;49.01;91007.06;2071651;69;20354;-79
2022/12/14 11:47:12;;;;;;;37.60;16.05;;;;;;;6.90;49.46;91014.19;2071695;69;20531;-79
2022/12/14 11:49:38;;;;;;;20.52;8.40;;;;;;;6.60;50.04;91023.34;2071615;69;20217;-74
2022/12/14 11:52:12;;;;;;;15.40;7.53;;;;;;;6.73;50.10;91012.72;2068258;69;20140;-77
2022/12/14 11:54:40;;;;;;;17.25;7.35;;;;;;;6.58;49.84;90997.34;2071451;69;20160;-78
2022/12/14 11:57:09;;;;;;;18.10;9.40;;;;;;;6.59;49.89;90996.69;2068082;69;20163;-79
2022/12/14 11:59:46;;;;;;;18.05;8.45;;;;;;;6.24;50.32;91004.78;2071606;69;20569;-78
2022/12/14 12:02:25;;;;;;;19.38;8.85;;;;;;;6.85;49.60;90988.84;2071646;69;20330;-78
2022/12/14 12:05:13;;;;;;;15.48;7.45;;;;;;;6.74;48.48;90984.13;2074341;69;20550;-77
2022/12/14 12:07:49;;;;;;;15.18;6.72;;;;;;;6.37;47.90;90976.09;2075161;69;20560;-78
2022/12/14 12:10:25;;;;;;;15.45;8.45;;;;;;;6.44;47.92;90994.59;2071459;69;20151;-78